KMTC

Selfridge Angb Airport

Mount Clemens, Michigan, USA
TAF KMTC 260100Z 2601/2707 34010G15KT 9999 FEW030 QNH2992INS BECMG 2602/2603 34009KT 9999 SCT025 QNH2990INS BECMG 2611/2612 34009KT 9999 FEW250 QNH2979INS TX15/2620Z TN01/2612Z LAST NO AMDS AFT 2603 NEXT 2609
Issued Valid From Valid To
Apr-26 @ 01:00 UTC
(3 hours ago)
Apr-26 @ 01:00 UTC
(3 hours ago)
Apr-27 @ 07:00 UTC
(-1 days ago)
Expired Click to View Apr-26 @ 01:00 to Apr-26 @ 02:00
TAF KMTC 260100Z 2601/2707 34010G15KT 9999 FEW030 QNH2992INS
Wind Visibility Clouds Readings
340° at 10 knots
 Gusting to 15 knots
Greater than 6 miles
  • Few at 3,000' AGL
Altimeter 29.91" Hg
Pressure 1013 hPa
Becoming Apr-26 @ 02:00 to Apr-26 @ 11:00
BECMG 2602/2603 34009KT 9999 SCT025 QNH2990INS
Wind Visibility Clouds Readings
340° at 9 knots Greater than 6 miles
  • Scattered at 2,500' AGL
Altimeter 29.91" Hg
Pressure 1013 hPa
Becoming Apr-26 @ 11:00 to Apr-27 @ 07:00
BECMG 2611/2612 34009KT 9999 FEW250 QNH2979INS TX15/2620Z TN01/2612Z LAST NO AMDS AFT 2603 NEXT 2609
Wind Visibility Clouds Readings
340° at 9 knots Greater than 6 miles
  • Few at 25,000' AGL
Altimeter 29.79" Hg
Pressure 1009 hPa
TAF KMTC 260100Z 2601/2707 34010G15KT 9999 FEW030 QNH2992INS BECMG 2602/2603 34009KT 9999 SCT025 QNH2990INS BECMG 2611/2612 34009KT 9999 FEW250 QNH2979INS TX15/2620Z TN01/2612Z LAST NO AMDS AFT 2603 NEXT 2609
Issued Apr-26 @ 01:00 UTC
(3 hours ago)
Valid From Apr-26 @ 01:00 UTC
(3 hours ago)
Valid To Apr-27 @ 07:00 UTC
(-1 days ago)
Apr-26 @ 01:00 - Apr-26 @ 02:00
Wind Visibility
340° at 10 knots
 Gusting to 15 knots
Greater than 6 miles
Clouds
  • Few at 3,000' AGL
Becoming Apr-26 @ 02:00 - Apr-26 @ 11:00
Wind Visibility
340° at 9 knots Greater than 6 miles
Clouds
  • Scattered at 2,500' AGL
Becoming Apr-26 @ 11:00 - Apr-27 @ 07:00
Wind Visibility
340° at 9 knots Greater than 6 miles
Clouds
  • Few at 25,000' AGL